Time;durP1;ratioP1;P1;durP2;ratioP2;P2;SDS_P1;SDS_P2;PMS_P1;PMS_P2;Temp;Humidity;BMP_temperature;BMP_pressure;BME280_temperature;BME280_humidity;BME280_pressure;Samples;Min_cycle;Max_cycle;Signal;HPM_P1;HPM_P2
2021/05/30 00:01:27;;;;;;;5.45;4.10;;;;;;;;;;143728;583;46020;-62
2021/05/30 00:03:54;;;;;;;10.07;4.90;;;;;;;;;;143725;597;46021;-61
2021/05/30 00:06:21;;;;;;;8.05;4.57;;;;;;;;;;143728;602;46020;-62
2021/05/30 00:08:48;;;;;;;10.32;5.40;;;;;;;;;;143725;565;46010;-61
2021/05/30 00:11:15;;;;;;;6.10;4.87;;;;;;;;;;143719;569;46020;-61
2021/05/30 00:13:42;;;;;;;10.15;4.62;;;;;;;;;;143725;570;46020;-61
2021/05/30 00:16:09;;;;;;;5.70;4.57;;;;;;;;;;143726;575;46022;-62
2021/05/30 00:18:36;;;;;;;10.65;4.70;;;;;;;;;;143725;639;46010;-61
2021/05/30 00:21:03;;;;;;;7.62;4.30;;;;;;;;;;143726;600;46020;-61
2021/05/30 00:23:30;;;;;;;6.43;4.78;;;;;;;;;;143726;588;46020;-61
2021/05/30 00:25:57;;;;;;;6.12;4.07;;;;;;;;;;143726;587;46039;-61
2021/05/30 00:28:24;;;;;;;7.20;4.22;;;;;;;;;;143720;571;47010;-61
2021/05/30 00:30:51;;;;;;;5.70;4.47;;;;;;;;;;143727;576;46020;-61
2021/05/30 00:33:18;;;;;;;12.05;4.68;;;;;;;;;;143726;586;46021;-61
2021/05/30 00:35:45;;;;;;;9.00;5.37;;;;;;;;;;143718;596;46052;-61
2021/05/30 00:38:12;;;;;;;8.27;4.75;;;;;;;;;;143718;595;47010;-60
2021/05/30 00:40:41;;;;;;;14.48;5.68;;;;;;;;;;143728;574;46020;-61
2021/05/30 00:43:08;;;;;;;10.40;4.72;;;;;;;;;;143725;609;46020;-61
2021/05/30 00:45:35;;;;;;;8.07;5.03;;;;;;;;;;143725;569;46022;-60
2021/05/30 00:48:02;;;;;;;10.52;5.05;;;;;;;;;;143727;643;46011;-60
2021/05/30 00:50:29;;;;;;;6.85;5.00;;;;;;;;;;143726;588;46020;-59
2021/05/30 00:52:57;;;;;;;5.85;4.87;;;;;;;;;;143726;579;46020;-60
2021/05/30 00:55:25;;;;;;;6.72;4.43;;;;;;;;;;143725;590;46022;-61
2021/05/30 00:57:52;;;;;;;4.93;4.18;;;;;;;;;;143725;596;46010;-61
2021/05/30 01:00:19;;;;;;;6.97;4.68;;;;;;;;;;143723;574;46020;-61
2021/05/30 01:02:46;;;;;;;5.72;4.68;;;;;;;;;;143725;586;46021;-60
2021/05/30 01:05:14;;;;;;;9.80;5.30;;;;;;;;;;143724;615;46023;-61
2021/05/30 01:07:42;;;;;;;5.85;4.07;;;;;;;;;;143724;677;46921;-61
2021/05/30 01:10:33;;;;;;;7.10;4.90;;;;;;;;;;143728;583;46020;-61
2021/05/30 01:13:04;;;;;;;5.97;4.45;;;;;;;;;;143725;661;46020;-61
2021/05/30 01:15:33;;;;;;;7.53;5.60;;;;;;;;;;143726;573;46022;-61
2021/05/30 01:18:00;;;;;;;7.50;4.85;;;;;;;;;;143721;580;47010;-61
2021/05/30 01:20:28;;;;;;;7.40;5.18;;;;;;;;;;143727;580;46020;-61
2021/05/30 01:22:55;;;;;;;7.57;5.00;;;;;;;;;;143726;613;46020;-61
2021/05/30 01:25:25;;;;;;;7.37;4.95;;;;;;;;;;143722;583;46022;-61
2021/05/30 01:27:53;;;;;;;6.15;4.55;;;;;;;;;;143724;586;46922;-60
2021/05/30 01:30:21;;;;;;;7.97;5.18;;;;;;;;;;143727;585;46020;-60
2021/05/30 01:32:49;;;;;;;6.47;4.22;;;;;;;;;;143726;587;46021;-60
2021/05/30 01:35:16;;;;;;;7.22;4.72;;;;;;;;;;143725;585;46047;-61
2021/05/30 01:37:43;;;;;;;7.45;5.18;;;;;;;;;;143724;584;46010;-61
2021/05/30 01:40:11;;;;;;;9.23;4.65;;;;;;;;;;143727;693;46020;-61
2021/05/30 01:42:38;;;;;;;7.65;4.93;;;;;;;;;;143725;565;46021;-61
2021/05/30 01:45:06;;;;;;;7.75;5.45;;;;;;;;;;143724;600;47020;-61
2021/05/30 01:47:39;;;;;;;9.23;5.53;;;;;;;;;;143724;656;47011;-61
2021/05/30 01:50:08;;;;;;;7.90;5.10;;;;;;;;;;143722;576;46020;-62
2021/05/30 01:52:36;;;;;;;6.15;4.72;;;;;;;;;;143726;588;46020;-61
2021/05/30 01:55:04;;;;;;;8.43;5.28;;;;;;;;;;143725;594;46022;-61
2021/05/30 01:57:40;;;;;;;6.30;5.00;;;;;;;;;;143725;583;46010;-60
2021/05/30 02:00:07;;;;;;;7.25;4.82;;;;;;;;;;143727;634;46020;-60
2021/05/30 02:02:35;;;;;;;6.82;5.10;;;;;;;;;;143725;586;46021;-61
2021/05/30 02:05:02;;;;;;;5.93;4.70;;;;;;;;;;143725;632;46023;-61
2021/05/30 02:07:29;;;;;;;8.52;4.85;;;;;;;;;;143717;603;46020;-61
2021/05/30 02:09:58;;;;;;;8.77;4.65;;;;;;;;;;143725;589;46020;-61
2021/05/30 02:12:27;;;;;;;9.18;5.45;;;;;;;;;;143726;593;46020;-61
2021/05/30 02:14:57;;;;;;;9.40;5.07;;;;;;;;;;143719;582;46022;-61
2021/05/30 02:17:24;;;;;;;8.70;5.20;;;;;;;;;;143724;702;46010;-60
2021/05/30 02:19:52;;;;;;;7.03;5.35;;;;;;;;;;143727;590;46020;-60
2021/05/30 02:22:20;;;;;;;10.00;5.40;;;;;;;;;;143724;564;46020;-61
2021/05/30 02:24:47;;;;;;;7.53;5.15;;;;;;;;;;143725;564;46022;-61
2021/05/30 02:27:14;;;;;;;8.40;4.60;;;;;;;;;;143725;577;46010;-61
2021/05/30 02:29:44;;;;;;;12.90;6.00;;;;;;;;;;143726;615;46020;-61
2021/05/30 02:32:14;;;;;;;8.15;6.12;;;;;;;;;;143726;588;46021;-61
2021/05/30 02:34:42;;;;;;;6.00;4.57;;;;;;;;;;143726;564;46023;-61
2021/05/30 02:37:11;;;;;;;9.25;5.40;;;;;;;;;;143724;625;46020;-62
2021/05/30 02:39:39;;;;;;;6.72;5.00;;;;;;;;;;143724;596;46020;-61
2021/05/30 02:42:07;;;;;;;8.05;4.85;;;;;;;;;;143726;616;46021;-61
2021/05/30 02:44:34;;;;;;;5.78;4.65;;;;;;;;;;143725;632;46022;-61
2021/05/30 02:47:01;;;;;;;8.80;4.87;;;;;;;;;;143721;656;46020;-61
2021/05/30 02:49:29;;;;;;;6.20;4.90;;;;;;;;;;143726;583;46021;-61
2021/05/30 02:51:57;;;;;;;8.73;5.65;;;;;;;;;;143725;588;46020;-61
2021/05/30 02:54:24;;;;;;;9.95;5.28;;;;;;;;;;143726;577;46022;-60
2021/05/30 02:56:51;;;;;;;6.62;4.75;;;;;;;;;;143725;646;46010;-61
2021/05/30 02:59:18;;;;;;;8.73;5.43;;;;;;;;;;143727;569;46020;-60
2021/05/30 03:01:45;;;;;;;6.97;4.68;;;;;;;;;;143725;654;46021;-59
2021/05/30 03:04:12;;;;;;;8.18;5.35;;;;;;;;;;143721;604;46023;-61
2021/05/30 03:06:39;;;;;;;7.12;5.45;;;;;;;;;;143725;565;46010;-60
2021/05/30 03:09:06;;;;;;;17.15;5.32;;;;;;;;;;143725;673;46020;-61
2021/05/30 03:11:33;;;;;;;6.55;5.05;;;;;;;;;;143725;586;47021;-61
2021/05/30 03:14:01;;;;;;;9.68;5.25;;;;;;;;;;143723;590;47020;-61
2021/05/30 03:16:28;;;;;;;8.35;5.80;;;;;;;;;;143725;603;46011;-61
2021/05/30 03:18:55;;;;;;;5.70;4.87;;;;;;;;;;143726;582;46021;-61
2021/05/30 03:21:22;;;;;;;12.00;5.00;;;;;;;;;;143726;587;46020;-60
2021/05/30 03:23:49;;;;;;;8.80;5.22;;;;;;;;;;143726;585;46022;-61
2021/05/30 03:26:16;;;;;;;12.37;6.35;;;;;;;;;;143724;688;46010;-61
2021/05/30 03:28:43;;;;;;;7.93;4.93;;;;;;;;;;143721;566;46020;-61
2021/05/30 03:31:10;;;;;;;8.30;5.57;;;;;;;;;;143724;596;46020;-61
2021/05/30 03:33:38;;;;;;;14.65;5.90;;;;;;;;;;143725;588;46023;-61
2021/05/30 03:36:09;;;;;;;11.23;4.97;;;;;;;;;;143724;586;46010;-61
2021/05/30 03:38:36;;;;;;;8.95;5.47;;;;;;;;;;143724;586;46041;-60
2021/05/30 03:41:06;;;;;;;6.50;4.78;;;;;;;;;;143726;595;46028;-62
2021/05/30 03:43:34;;;;;;;8.68;5.20;;;;;;;;;;143726;604;46022;-61
2021/05/30 03:46:02;;;;;;;8.73;5.37;;;;;;;;;;143725;580;46011;-62
2021/05/30 03:48:29;;;;;;;10.02;5.90;;;;;;;;;;143729;569;46021;-61
2021/05/30 03:50:57;;;;;;;8.85;6.15;;;;;;;;;;143726;569;46020;-62
2021/05/30 03:53:24;;;;;;;8.23;6.62;;;;;;;;;;143722;596;47020;-62
2021/05/30 03:55:51;;;;;;;9.35;5.85;;;;;;;;;;143726;633;46010;-62
2021/05/30 03:58:19;;;;;;;9.05;5.60;;;;;;;;;;143726;579;46020;-62
2021/05/30 04:00:46;;;;;;;6.65;5.68;;;;;;;;;;143725;584;46029;-61
2021/05/30 04:03:13;;;;;;;6.95;4.68;;;;;;;;;;143726;613;46047;-61
2021/05/30 04:05:41;;;;;;;10.13;6.53;;;;;;;;;;143725;651;46010;-61
2021/05/30 04:08:08;;;;;;;8.52;6.07;;;;;;;;;;143727;609;46020;-61
2021/05/30 04:10:35;;;;;;;10.35;5.50;;;;;;;;;;143721;580;46021;-61
2021/05/30 04:13:02;;;;;;;14.90;7.20;;;;;;;;;;143725;637;47020;-61
2021/05/30 04:15:29;;;;;;;9.77;5.37;;;;;;;;;;143728;629;46010;-61
2021/05/30 04:17:57;;;;;;;7.35;5.35;;;;;;;;;;143725;619;46021;-61
2021/05/30 04:20:24;;;;;;;8.68;5.15;;;;;;;;;;143728;587;46020;-61
2021/05/30 04:22:51;;;;;;;10.48;5.32;;;;;;;;;;143725;563;46022;-62
2021/05/30 04:25:18;;;;;;;10.30;5.68;;;;;;;;;;143724;570;46010;-63
2021/05/30 04:27:47;;;;;;;5.75;4.53;;;;;;;;;;143726;605;46020;-61
2021/05/30 04:30:15;;;;;;;12.90;5.30;;;;;;;;;;143725;601;46020;-61
2021/05/30 04:32:43;;;;;;;16.25;5.72;;;;;;;;;;143725;571;47052;-62
2021/05/30 04:35:11;;;;;;;13.80;5.70;;;;;;;;;;143725;566;46010;-62
2021/05/30 04:37:38;;;;;;;10.27;5.60;;;;;;;;;;143726;573;46020;-62
2021/05/30 04:40:06;;;;;;;15.15;6.50;;;;;;;;;;143730;564;46021;-61
2021/05/30 04:42:33;;;;;;;18.73;7.20;;;;;;;;;;143719;569;46022;-62
2021/05/30 04:45:00;;;;;;;14.48;6.80;;;;;;;;;;143725;604;46011;-61
2021/05/30 04:47:28;;;;;;;16.50;6.90;;;;;;;;;;143728;606;46021;-60
2021/05/30 04:49:55;;;;;;;18.50;6.32;;;;;;;;;;143726;573;46020;-61
2021/05/30 04:52:22;;;;;;;12.32;6.25;;;;;;;;;;143726;623;46022;-61
2021/05/30 04:54:49;;;;;;;10.45;6.37;;;;;;;;;;143726;625;46010;-62
2021/05/30 04:57:17;;;;;;;17.17;5.70;;;;;;;;;;143728;566;46020;-62
2021/05/30 04:59:45;;;;;;;13.30;5.55;;;;;;;;;;143726;635;46020;-61
2021/05/30 05:02:12;;;;;;;11.27;5.75;;;;;;;;;;143727;573;46023;-61
2021/05/30 05:04:38;;;;;;;12.75;6.05;;;;;;;;;;143726;564;46010;-61
2021/05/30 05:07:06;;;;;;;8.07;5.20;;;;;;;;;;143723;578;46020;-61
2021/05/30 05:09:33;;;;;;;8.02;4.72;;;;;;;;;;143726;628;46021;-61
2021/05/30 05:12:00;;;;;;;11.88;5.28;;;;;;;;;;143718;643;47020;-61
2021/05/30 05:14:27;;;;;;;10.65;5.82;;;;;;;;;;143723;594;46921;-62
2021/05/30 05:16:54;;;;;;;7.82;5.47;;;;;;;;;;143726;587;46021;-61
2021/05/30 05:19:21;;;;;;;8.25;5.47;;;;;;;;;;143727;585;46020;-62
2021/05/30 05:21:48;;;;;;;8.85;5.07;;;;;;;;;;143726;599;46022;-60
2021/05/30 05:24:16;;;;;;;10.30;5.32;;;;;;;;;;143724;605;46010;-60
2021/05/30 05:26:43;;;;;;;7.43;4.82;;;;;;;;;;143729;582;46020;-60
2021/05/30 05:29:10;;;;;;;10.45;6.03;;;;;;;;;;143727;618;46020;-60
2021/05/30 05:31:37;;;;;;;11.80;5.60;;;;;;;;;;143720;578;47021;-60
2021/05/30 05:34:04;;;;;;;14.07;5.50;;;;;;;;;;143727;569;46010;-61
2021/05/30 05:36:31;;;;;;;9.15;5.07;;;;;;;;;;143729;638;46020;-60
2021/05/30 05:38:58;;;;;;;10.90;5.47;;;;;;;;;;143728;577;46021;-60
2021/05/30 05:41:25;;;;;;;7.75;5.40;;;;;;;;;;143727;582;46022;-61
2021/05/30 05:43:52;;;;;;;11.55;5.10;;;;;;;;;;143726;683;47010;-60
2021/05/30 05:46:19;;;;;;;10.40;5.35;;;;;;;;;;143726;635;46021;-61
2021/05/30 05:48:46;;;;;;;9.63;5.05;;;;;;;;;;143728;634;46021;-60
2021/05/30 05:51:13;;;;;;;9.38;5.28;;;;;;;;;;143726;575;46022;-60
2021/05/30 05:53:40;;;;;;;6.45;4.78;;;;;;;;;;143734;637;46021;-60
2021/05/30 05:56:07;;;;;;;8.95;5.85;;;;;;;;;;143735;620;45021;-60
2021/05/30 05:58:35;;;;;;;9.35;5.15;;;;;;;;;;143736;666;46020;-60
2021/05/30 06:01:02;;;;;;;13.00;5.03;;;;;;;;;;143734;564;46052;-61
2021/05/30 06:03:29;;;;;;;8.77;5.37;;;;;;;;;;143736;571;46010;-60
2021/05/30 06:05:56;;;;;;;8.82;5.90;;;;;;;;;;143735;574;45913;-60
2021/05/30 06:08:24;;;;;;;9.00;5.05;;;;;;;;;;143737;614;46021;-61
2021/05/30 06:10:51;;;;;;;6.05;4.78;;;;;;;;;;143733;565;46050;-61
2021/05/30 06:13:18;;;;;;;7.82;4.75;;;;;;;;;;143734;815;46010;-61
2021/05/30 06:15:44;;;;;;;8.30;4.47;;;;;;;;;;143734;569;46011;-60
2021/05/30 06:18:12;;;;;;;7.82;4.70;;;;;;;;;;143738;569;46020;-61
2021/05/30 06:20:47;;;;;;;7.55;4.90;;;;;;;;;;143735;564;46022;-59
2021/05/30 06:23:14;;;;;;;8.48;4.80;;;;;;;;;;143735;709;46011;-61
2021/05/30 06:25:45;;;;;;;8.30;5.18;;;;;;;;;;143734;594;45020;-61
2021/05/30 06:28:12;;;;;;;6.68;4.65;;;;;;;;;;143734;619;46020;-60
2021/05/30 06:30:41;;;;;;;7.03;4.68;;;;;;;;;;143735;713;46022;-60
2021/05/30 06:33:09;;;;;;;7.68;4.50;;;;;;;;;;143735;636;46010;-60
2021/05/30 06:35:39;;;;;;;9.60;4.50;;;;;;;;;;143734;832;45913;-60
2021/05/30 06:38:10;;;;;;;10.55;4.72;;;;;;;;;;143735;613;46021;-61
2021/05/30 06:40:38;;;;;;;6.32;4.50;;;;;;;;;;143735;569;46023;-60
2021/05/30 06:43:05;;;;;;;6.07;4.37;;;;;;;;;;143735;599;46010;-61
2021/05/30 06:45:32;;;;;;;7.55;4.55;;;;;;;;;;143734;590;45021;-60
2021/05/30 06:48:00;;;;;;;8.98;4.62;;;;;;;;;;143734;746;46021;-61
2021/05/30 06:50:28;;;;;;;9.80;5.10;;;;;;;;;;143733;600;46022;-60
2021/05/30 06:52:55;;;;;;;10.48;4.32;;;;;;;;;;143730;628;46021;-61
2021/05/30 06:55:23;;;;;;;8.20;4.70;;;;;;;;;;143729;606;46020;-61
2021/05/30 06:57:50;;;;;;;8.77;6.70;;;;;;;;;;143727;593;46029;-61
2021/05/30 07:00:18;;;;;;;7.82;5.03;;;;;;;;;;143726;600;46022;-60
2021/05/30 07:02:45;;;;;;;7.62;4.50;;;;;;;;;;143728;613;46010;-61
2021/05/30 07:05:13;;;;;;;8.52;4.80;;;;;;;;;;143729;566;46020;-60
2021/05/30 07:07:40;;;;;;;7.20;4.72;;;;;;;;;;143729;566;46021;-60
2021/05/30 07:10:08;;;;;;;7.50;4.70;;;;;;;;;;143725;585;46023;-61
2021/05/30 07:12:35;;;;;;;6.60;4.93;;;;;;;;;;143724;578;46010;-60
2021/05/30 07:15:02;;;;;;;6.07;4.30;;;;;;;;;;143728;614;46020;-60
2021/05/30 07:17:29;;;;;;;9.43;5.10;;;;;;;;;;143728;597;46021;-61
2021/05/30 07:19:57;;;;;;;8.15;4.90;;;;;;;;;;143727;608;46022;-60
2021/05/30 07:22:24;;;;;;;9.52;4.50;;;;;;;;;;143727;587;46011;-61
2021/05/30 07:24:51;;;;;;;9.85;4.68;;;;;;;;;;143728;578;46021;-60
2021/05/30 07:27:19;;;;;;;8.80;5.35;;;;;;;;;;143728;595;46020;-60
2021/05/30 07:29:46;;;;;;;14.38;6.95;;;;;;;;;;143725;605;47020;-62
2021/05/30 07:32:13;;;;;;;12.20;6.87;;;;;;;;;;143727;704;46010;-61
2021/05/30 07:34:40;;;;;;;13.40;8.57;;;;;;;;;;143723;687;46020;-61
2021/05/30 07:37:07;;;;;;;10.95;8.35;;;;;;;;;;143727;617;46021;-61
2021/05/30 07:39:34;;;;;;;12.57;9.88;;;;;;;;;;143728;771;46023;-61
2021/05/30 07:42:01;;;;;;;10.57;8.43;;;;;;;;;;143726;577;46020;-62
2021/05/30 07:44:28;;;;;;;14.27;10.43;;;;;;;;;;143728;606;46020;-61
2021/05/30 07:46:55;;;;;;;16.55;11.68;;;;;;;;;;143728;565;46021;-62
2021/05/30 07:49:22;;;;;;;11.48;8.85;;;;;;;;;;143727;705;46022;-62
2021/05/30 07:51:49;;;;;;;8.52;5.70;;;;;;;;;;143726;564;46011;-62
2021/05/30 07:54:17;;;;;;;16.75;8.85;;;;;;;;;;143730;647;46021;-62
2021/05/30 07:56:45;;;;;;;11.12;8.20;;;;;;;;;;143736;705;46020;-62
2021/05/30 07:59:12;;;;;;;14.32;9.85;;;;;;;;;;143735;610;47021;-61
2021/05/30 08:01:39;;;;;;;10.68;7.47;;;;;;;;;;143734;570;46010;-61
2021/05/30 08:04:07;;;;;;;11.93;8.77;;;;;;;;;;143733;597;45020;-60
2021/05/30 08:06:34;;;;;;;14.48;9.93;;;;;;;;;;143736;620;46021;-60
2021/05/30 08:09:01;;;;;;;11.80;8.95;;;;;;;;;;143738;634;46020;-60
2021/05/30 08:11:28;;;;;;;18.98;11.68;;;;;;;;;;143734;595;46010;-61
2021/05/30 08:13:56;;;;;;;15.57;11.07;;;;;;;;;;143731;580;45912;-61
2021/05/30 08:16:23;;;;;;;12.45;9.27;;;;;;;;;;143734;585;46021;-64
2021/05/30 08:18:50;;;;;;;16.40;11.82;;;;;;;;;;143736;745;46020;-63
2021/05/30 08:21:17;;;;;;;19.17;13.32;;;;;;;;;;143734;633;46011;-63
2021/05/30 08:23:47;;;;;;;15.65;9.35;;;;;;;;;;143733;569;45911;-63
2021/05/30 08:26:14;;;;;;;15.40;11.25;;;;;;;;;;143735;564;46020;-63
2021/05/30 08:28:41;;;;;;;14.10;10.20;;;;;;;;;;143734;633;46020;-64
2021/05/30 08:31:08;;;;;;;13.25;10.35;;;;;;;;;;143734;569;46010;-62
2021/05/30 08:33:36;;;;;;;8.38;5.18;;;;;;;;;;143733;569;45020;-62
2021/05/30 08:36:03;;;;;;;9.30;5.78;;;;;;;;;;143737;564;46020;-62
2021/05/30 08:38:31;;;;;;;8.98;5.12;;;;;;;;;;143732;589;46021;-62
2021/05/30 08:40:59;;;;;;;12.80;5.53;;;;;;;;;;143734;579;46010;-63
2021/05/30 08:43:27;;;;;;;8.68;6.10;;;;;;;;;;143733;569;45913;-62
2021/05/30 08:45:54;;;;;;;9.35;6.70;;;;;;;;;;143736;633;45021;-62
2021/05/30 08:48:21;;;;;;;7.15;5.37;;;;;;;;;;143735;808;46020;-62
2021/05/30 08:51:02;;;;;;;11.10;6.82;;;;;;;;;;143732;781;46011;-63
2021/05/30 08:53:35;;;;;;;8.63;6.07;;;;;;;;;;143732;606;46913;-63
2021/05/30 08:56:02;;;;;;;13.20;6.22;;;;;;;;;;143735;738;46020;-62
2021/05/30 08:58:42;;;;;;;11.90;7.43;;;;;;;;;;143736;833;46021;-63
2021/05/30 09:01:13;;;;;;;8.73;5.85;;;;;;;;;;143733;610;46010;-63
2021/05/30 09:04:06;;;;;;;9.18;6.35;;;;;;;;;;143733;589;45913;-63
2021/05/30 09:06:34;;;;;;;12.60;6.72;;;;;;;;;;143736;578;46021;-63
2021/05/30 09:09:04;;;;;;;11.30;6.43;;;;;;;;;;143737;676;46020;-63
2021/05/30 09:11:59;;;;;;;16.27;5.85;;;;;;;;;;143734;580;46010;-64
2021/05/30 09:14:31;;;;;;;;;;;;;;;;;;143739;981;45021;-63
2021/05/30 09:17:15;;;;;;;8.57;5.65;;;;;;;;;;143741;569;46020;-63
2021/05/30 09:19:50;;;;;;;15.55;6.70;;;;;;;;;;143736;702;46020;-63
2021/05/30 09:22:38;;;;;;;11.18;6.57;;;;;;;;;;143731;841;46011;-63
2021/05/30 09:25:16;;;;;;;11.70;6.45;;;;;;;;;;143733;663;45912;-63
2021/05/30 09:27:53;;;;;;;9.55;6.60;;;;;;;;;;143736;607;46020;-63
2021/05/30 09:30:39;;;;;;;9.20;5.97;;;;;;;;;;143737;565;46020;-62
2021/05/30 09:33:15;;;;;;;12.05;7.87;;;;;;;;;;143733;570;46010;-64
2021/05/30 09:35:46;;;;;;;15.38;11.68;;;;;;;;;;143735;566;46018;-62
2021/05/30 09:38:19;;;;;;;18.00;13.77;;;;;;;;;;143735;599;46021;-62
2021/05/30 09:40:49;;;;;;;20.52;14.00;;;;;;;;;;143729;598;46020;-61
2021/05/30 09:43:45;;;;;;;21.48;16.52;;;;;;;;;;143734;618;46010;-63
2021/05/30 09:46:14;;;;;;;19.40;13.65;;;;;;;;;;143734;778;45021;-63
2021/05/30 09:48:56;;;;;;;23.33;16.70;;;;;;;;;;143736;783;46020;-62
2021/05/30 09:51:32;;;;;;;22.62;18.15;;;;;;;;;;143735;819;46022;-62
2021/05/30 09:54:02;;;;;;;16.70;12.68;;;;;;;;;;143725;861;47010;-62
2021/05/30 09:56:43;;;;;;;12.48;6.78;;;;;;;;;;143728;564;46020;-63
2021/05/30 09:59:15;;;;;;;12.10;7.50;;;;;;;;;;143727;585;46021;-62
2021/05/30 10:02:08;;;;;;;16.08;8.60;;;;;;;;;;143728;615;46023;-62
2021/05/30 10:04:36;;;;;;;15.15;6.22;;;;;;;;;;143726;569;46010;-62
2021/05/30 10:07:05;;;;;;;19.62;13.07;;;;;;;;;;143721;657;46020;-62
2021/05/30 10:09:32;;;;;;;11.27;7.97;;;;;;;;;;143725;623;46020;-63
2021/05/30 10:11:59;;;;;;;12.40;8.88;;;;;;;;;;143724;613;47020;-61
2021/05/30 10:14:27;;;;;;;15.32;9.68;;;;;;;;;;143725;603;46010;-62
2021/05/30 10:16:55;;;;;;;15.63;11.23;;;;;;;;;;143727;790;46020;-62
2021/05/30 10:19:37;;;;;;;11.82;6.68;;;;;;;;;;143728;585;46020;-62
2021/05/30 10:22:04;;;;;;;7.40;6.03;;;;;;;;;;143724;589;47022;-62
2021/05/30 10:24:32;;;;;;;8.45;6.15;;;;;;;;;;143724;592;47009;-62
2021/05/30 10:27:18;;;;;;;17.95;14.10;;;;;;;;;;143726;597;46020;-62
2021/05/30 10:30:20;;;;;;;20.70;13.30;;;;;;;;;;143725;567;46021;-62
2021/05/30 10:33:08;;;;;;;11.18;7.18;;;;;;;;;;143718;569;46054;-62
2021/05/30 10:35:35;;;;;;;16.50;11.45;;;;;;;;;;143725;597;46011;-61
2021/05/30 10:38:02;;;;;;;10.15;6.43;;;;;;;;;;143722;608;46021;-61
2021/05/30 10:40:48;;;;;;;13.35;6.95;;;;;;;;;;143726;588;46020;-61
2021/05/30 10:43:16;;;;;;;9.10;6.78;;;;;;;;;;143724;577;46022;-61
2021/05/30 10:46:03;;;;;;;10.82;7.25;;;;;;;;;;143725;583;46010;-61
2021/05/30 10:48:30;;;;;;;8.48;6.37;;;;;;;;;;143726;575;46020;-61
2021/05/30 10:53:51;;;;;;;6.25;5.03;;;;;;;;;;143725;577;46025;-61
2021/05/30 10:56:37;;;;;;;8.65;6.78;;;;;;;;;;143724;589;46010;-61
2021/05/30 10:59:25;;;;;;;7.10;5.60;;;;;;;;;;143724;576;46020;-61
2021/05/30 11:01:53;;;;;;;8.02;6.72;;;;;;;;;;143726;564;46022;-61
2021/05/30 11:04:30;;;;;;;8.45;6.15;;;;;;;;;;143724;593;46022;-61
2021/05/30 11:07:40;;;;;;;8.13;5.37;;;;;;;;;;143725;580;46010;-61
2021/05/30 11:10:09;;;;;;;12.23;5.80;;;;;;;;;;143727;628;46020;-61
2021/05/30 11:12:50;;;;;;;8.98;4.93;;;;;;;;;;143727;607;46021;-61
2021/05/30 11:15:22;;;;;;;9.48;6.97;;;;;;;;;;143726;612;46023;-61
2021/05/30 11:17:54;;;;;;;9.85;6.47;;;;;;;;;;143725;575;46010;-61
2021/05/30 11:20:46;;;;;;;7.35;5.05;;;;;;;;;;143724;588;46020;-61
2021/05/30 11:23:21;;;;;;;8.52;4.82;;;;;;;;;;143725;642;46021;-61
2021/05/30 11:25:51;;;;;;;7.82;5.20;;;;;;;;;;143718;579;46022;-61
2021/05/30 11:28:26;;;;;;;6.22;4.80;;;;;;;;;;143726;570;46010;-61
2021/05/30 11:31:06;;;;;;;9.10;5.45;;;;;;;;;;143726;640;46021;-61
2021/05/30 11:33:42;;;;;;;9.07;4.70;;;;;;;;;;143725;589;46020;-62
2021/05/30 11:36:15;;;;;;;8.27;4.75;;;;;;;;;;143726;609;46022;-61
2021/05/30 11:38:57;;;;;;;10.48;5.00;;;;;;;;;;143725;648;46010;-61
2021/05/30 11:41:38;;;;;;;10.32;5.15;;;;;;;;;;143725;590;46020;-61
2021/05/30 11:44:14;;;;;;;9.35;4.80;;;;;;;;;;143724;577;47020;-61
2021/05/30 11:47:02;;;;;;;6.70;4.35;;;;;;;;;;143727;582;46022;-61
2021/05/30 11:49:36;;;;;;;5.35;4.30;;;;;;;;;;143726;639;46011;-61
2021/05/30 11:52:08;;;;;;;8.57;4.30;;;;;;;;;;143721;618;46021;-62
2021/05/30 11:54:50;;;;;;;5.55;4.25;;;;;;;;;;143724;637;46020;-62
2021/05/30 11:57:24;;;;;;;5.47;4.00;;;;;;;;;;143727;589;46051;-62
2021/05/30 12:00:09;;;;;;;5.12;3.67;;;;;;;;;;143724;571;46010;-62
2021/05/30 12:02:42;;;;;;;8.70;3.83;;;;;;;;;;143727;654;46022;-63
2021/05/30 12:05:14;;;;;;;5.45;4.05;;;;;;;;;;143724;601;46021;-63
2021/05/30 12:07:42;;;;;;;5.82;4.32;;;;;;;;;;143724;570;46023;-63
2021/05/30 12:10:11;;;;;;;8.40;4.12;;;;;;;;;;143725;569;46010;-63
2021/05/30 12:12:46;;;;;;;6.37;4.40;;;;;;;;;;143727;575;46020;-63
2021/05/30 12:15:24;;;;;;;5.03;4.43;;;;;;;;;;143726;570;46021;-63
2021/05/30 12:18:04;;;;;;;5.15;4.25;;;;;;;;;;143718;593;46050;-64
2021/05/30 12:20:41;;;;;;;8.85;4.60;;;;;;;;;;143725;640;46010;-63
2021/05/30 12:23:10;;;;;;;7.20;4.47;;;;;;;;;;143724;577;46020;-64
2021/05/30 12:25:46;;;;;;;7.50;4.60;;;;;;;;;;143726;652;46020;-64
2021/05/30 12:28:13;;;;;;;6.60;4.00;;;;;;;;;;143727;571;46021;-63
2021/05/30 12:30:41;;;;;;;5.72;4.10;;;;;;;;;;143725;702;46010;-63
2021/05/30 12:33:08;;;;;;;6.65;4.53;;;;;;;;;;143727;619;46020;-63
2021/05/30 12:36:06;;;;;;;5.28;4.15;;;;;;;;;;143725;583;46021;-63
2021/05/30 12:38:33;;;;;;;5.53;4.47;;;;;;;;;;143725;594;46054;-62
2021/05/30 12:41:00;;;;;;;6.60;4.47;;;;;;;;;;143725;572;46010;-63
2021/05/30 12:43:41;;;;;;;7.35;4.07;;;;;;;;;;143720;578;46020;-62
2021/05/30 12:46:10;;;;;;;9.88;4.90;;;;;;;;;;143726;585;46020;-62
2021/05/30 12:48:49;;;;;;;6.47;4.85;;;;;;;;;;143725;563;46022;-63
2021/05/30 12:51:22;;;;;;;6.90;4.60;;;;;;;;;;143725;581;46010;-62
2021/05/30 12:53:50;;;;;;;7.82;4.80;;;;;;;;;;143728;585;46020;-62
2021/05/30 12:56:21;;;;;;;6.32;5.10;;;;;;;;;;143726;569;46020;-62
2021/05/30 12:59:21;;;;;;;6.40;4.50;;;;;;;;;;143725;613;46023;-63
2021/05/30 13:01:50;;;;;;;8.38;4.50;;;;;;;;;;143725;629;46010;-62
2021/05/30 13:04:39;;;;;;;6.75;4.90;;;;;;;;;;143728;602;46020;-63
2021/05/30 13:07:11;;;;;;;5.30;4.20;;;;;;;;;;143727;611;46021;-62
2021/05/30 13:09:46;;;;;;;6.10;4.07;;;;;;;;;;143720;582;47022;-62
2021/05/30 13:12:33;;;;;;;5.47;4.15;;;;;;;;;;143724;616;46021;-63
2021/05/30 13:15:11;;;;;;;6.70;4.55;;;;;;;;;;143728;577;46020;-63
2021/05/30 13:17:39;;;;;;;7.68;4.47;;;;;;;;;;143726;598;46020;-64
2021/05/30 13:20:26;;;;;;;6.95;4.18;;;;;;;;;;143725;576;46022;-63
2021/05/30 13:23:00;;;;;;;5.22;4.32;;;;;;;;;;143724;567;46020;-64
2021/05/30 13:25:58;;;;;;;5.47;4.30;;;;;;;;;;143725;599;46020;-63
2021/05/30 13:28:41;;;;;;;4.90;3.78;;;;;;;;;;143726;695;46022;-63
2021/05/30 13:31:14;;;;;;;6.30;4.47;;;;;;;;;;143724;580;46022;-63
2021/05/30 13:33:43;;;;;;;5.03;4.15;;;;;;;;;;143725;586;46010;-62
2021/05/30 13:36:10;;;;;;;6.75;4.10;;;;;;;;;;143721;614;46021;-62
2021/05/30 13:38:38;;;;;;;5.45;4.20;;;;;;;;;;143725;569;46020;-62
2021/05/30 13:41:25;;;;;;;7.90;4.30;;;;;;;;;;143726;592;46022;-61
2021/05/30 13:43:54;;;;;;;8.85;4.18;;;;;;;;;;143725;569;46010;-61
2021/05/30 13:46:21;;;;;;;6.97;4.07;;;;;;;;;;143726;598;46020;-62
2021/05/30 13:48:49;;;;;;;10.35;3.97;;;;;;;;;;143724;667;46020;-61
2021/05/30 13:51:16;;;;;;;8.73;4.70;;;;;;;;;;143725;618;46023;-61
2021/05/30 13:53:46;;;;;;;5.30;4.03;;;;;;;;;;143724;569;46010;-61
2021/05/30 13:56:13;;;;;;;4.95;4.40;;;;;;;;;;143725;610;46020;-61
2021/05/30 13:58:42;;;;;;;6.45;4.20;;;;;;;;;;143726;579;46021;-61
2021/05/30 14:01:11;;;;;;;6.22;4.15;;;;;;;;;;143717;584;46022;-61
2021/05/30 14:03:40;;;;;;;12.30;4.85;;;;;;;;;;143724;704;46010;-61
2021/05/30 14:06:11;;;;;;;5.75;4.10;;;;;;;;;;143726;597;46021;-61
2021/05/30 14:08:37;;;;;;;7.72;4.55;;;;;;;;;;143725;564;46020;-62
2021/05/30 14:11:05;;;;;;;5.43;4.43;;;;;;;;;;143725;593;46022;-63
2021/05/30 14:13:32;;;;;;;4.57;3.75;;;;;;;;;;143725;585;46010;-63
2021/05/30 14:15:59;;;;;;;4.32;3.80;;;;;;;;;;143724;595;47012;-63
2021/05/30 14:18:26;;;;;;;5.62;4.22;;;;;;;;;;143725;594;46020;-63
2021/05/30 14:20:52;;;;;;;5.18;4.18;;;;;;;;;;143724;611;46023;-64
2021/05/30 14:23:19;;;;;;;4.62;4.00;;;;;;;;;;143724;611;46020;-63
2021/05/30 14:25:46;;;;;;;5.12;4.28;;;;;;;;;;143721;564;46020;-63
2021/05/30 14:28:13;;;;;;;5.15;4.40;;;;;;;;;;143727;734;46021;-63
2021/05/30 14:30:41;;;;;;;6.97;4.12;;;;;;;;;;143725;612;46022;-63
2021/05/30 14:33:08;;;;;;;6.72;4.30;;;;;;;;;;143725;604;46021;-63
2021/05/30 14:35:35;;;;;;;6.72;4.55;;;;;;;;;;143726;581;46021;-63
2021/05/30 14:38:02;;;;;;;7.82;4.57;;;;;;;;;;143726;579;46020;-63
2021/05/30 14:40:29;;;;;;;6.47;4.45;;;;;;;;;;143724;565;46022;-63
2021/05/30 14:42:56;;;;;;;6.00;4.10;;;;;;;;;;143722;569;46021;-63
2021/05/30 14:45:23;;;;;;;7.95;4.32;;;;;;;;;;143726;583;46020;-63
2021/05/30 14:47:50;;;;;;;5.97;4.80;;;;;;;;;;143726;582;46020;-63
2021/05/30 14:50:17;;;;;;;6.28;3.95;;;;;;;;;;143718;565;46023;-65
2021/05/30 14:52:44;;;;;;;6.18;4.80;;;;;;;;;;143723;634;46020;-63
2021/05/30 14:55:14;;;;;;;6.93;4.50;;;;;;;;;;143726;568;46020;-63
2021/05/30 14:57:42;;;;;;;5.35;4.65;;;;;;;;;;143726;595;46029;-63
2021/05/30 15:00:10;;;;;;;8.75;4.90;;;;;;;;;;143725;607;46022;-63